Time;durP1;ratioP1;P1;durP2;ratioP2;P2;SDS_P1;SDS_P2;PMS_P1;PMS_P2;Temp;Humidity;BMP_temperature;BMP_pressure;BME280_temperature;BME280_humidity;BME280_pressure;Samples;Min_cycle;Max_cycle;Signal;HPM_P1;HPM_P2
2022/11/09 00:00:46;;;;;;;0.85;0.73;;;8.10;98.00;;;;;;4899830;29;20075;-69
2022/11/09 00:03:27;;;;;;;2.97;1.98;;;8.10;98.00;;;;;;4900119;29;20032;-69
2022/11/09 00:06:02;;;;;;;1.58;0.90;;;8.10;98.00;;;;;;4899848;29;20032;-69
2022/11/09 00:08:37;;;;;;;3.40;1.17;;;8.10;98.00;;;;;;4899621;29;20036;-70
2022/11/09 00:11:08;;;;;;;0.85;0.45;;;8.10;98.00;;;;;;4899685;29;20024;-70
2022/11/09 00:13:47;;;;;;;1.48;1.10;;;8.10;98.00;;;;;;4958801;29;20059;-69
2022/11/09 00:16:22;;;;;;;1.52;1.10;;;8.10;98.00;;;;;;4958630;29;20023;-70
2022/11/09 00:18:57;;;;;;;0.85;0.50;;;8.10;98.00;;;;;;4958551;29;20082;-70
2022/11/09 00:21:24;;;;;;;0.90;0.63;;;8.10;98.00;;;;;;4958235;28;20054;-69
2022/11/09 00:24:05;;;;;;;1.98;1.48;;;8.10;98.00;;;;;;4958554;29;20032;-69
2022/11/09 00:26:40;;;;;;;1.00;0.68;;;8.00;98.00;;;;;;4941481;29;20031;-69
2022/11/09 00:29:15;;;;;;;0.40;0.40;;;7.90;98.00;;;;;;4958459;28;20059;-69
2022/11/09 00:31:42;;;;;;;1.13;0.47;;;7.90;98.00;;;;;;4958287;29;20090;-70
2022/11/09 00:34:25;;;;;;;0.32;0.30;;;7.90;98.00;;;;;;4958198;29;20016;-69
2022/11/09 00:37:00;;;;;;;4.18;1.30;;;8.00;98.00;;;;;;4922341;29;20052;-69
2022/11/09 00:39:35;;;;;;;1.10;0.90;;;8.00;98.00;;;;;;4939134;29;20050;-70
2022/11/09 00:42:01;;;;;;;1.80;1.05;;;8.10;98.00;;;;;;4939237;29;20360;-69
2022/11/09 00:44:46;;;;;;;0.57;0.57;;;8.20;98.00;;;;;;4938958;29;20028;-70
2022/11/09 00:47:21;;;;;;;4.00;0.98;;;8.20;98.00;;;;;;4939145;29;20107;-70
2022/11/09 00:49:56;;;;;;;1.50;1.20;;;8.30;98.00;;;;;;4939121;29;20103;-69
2022/11/09 00:52:21;;;;;;;0.40;0.30;;;8.20;98.00;;;;;;4938970;29;20082;-70
2022/11/09 00:55:06;;;;;;;0.95;0.50;;;8.20;98.00;;;;;;4938955;29;20473;-70
2022/11/09 00:57:40;;;;;;;0.70;0.60;;;8.20;98.00;;;;;;4939235;29;20054;-69
2022/11/09 01:00:17;;;;;;;4.70;1.23;;;8.20;98.00;;;;;;4921989;29;20035;-69
2022/11/09 01:02:52;;;;;;;3.58;1.50;;;8.20;98.00;;;;;;4938893;29;20047;-69
2022/11/09 01:05:27;;;;;;;1.42;0.65;;;8.20;98.00;;;;;;4938838;29;20028;-69
2022/11/09 01:08:04;;;;;;;2.60;1.60;;;8.20;98.00;;;;;;4938879;29;20028;-70
2022/11/09 01:10:30;;;;;;;1.58;0.90;;;8.30;98.00;;;;;;4938830;29;20028;-69
2022/11/09 01:13:13;;;;;;;1.25;0.80;;;8.30;98.00;;;;;;4939162;29;20484;-69
2022/11/09 01:15:52;;;;;;;2.17;1.40;;;8.30;98.00;;;;;;4938751;29;20028;-69
2022/11/09 01:18:27;;;;;;;0.52;0.52;;;8.30;98.00;;;;;;4938817;29;20043;-70
2022/11/09 01:20:52;;;;;;;0.68;0.52;;;8.40;98.00;;;;;;4941568;29;20047;-69
2022/11/09 01:23:31;;;;;;;0.88;0.82;;;8.40;98.00;;;;;;4942661;29;20023;-70
2022/11/09 01:26:12;;;;;;;8.35;1.17;;;8.40;98.00;;;;;;4942380;29;20019;-69
2022/11/09 01:28:47;;;;;;;0.60;0.35;;;8.40;98.00;;;;;;4942505;29;20031;-69
2022/11/09 01:31:16;;;;;;;3.15;0.63;;;8.30;98.00;;;;;;4942275;29;20123;-69
2022/11/09 01:33:51;;;;;;;1.02;0.63;;;8.20;98.00;;;;;;4942241;29;20039;-69
2022/11/09 01:36:25;;;;;;;2.15;0.80;;;8.10;98.00;;;;;;4956542;28;20142;-69
2022/11/09 01:39:00;;;;;;;3.58;1.45;;;8.10;98.00;;;;;;4961459;29;20071;-69
2022/11/09 01:41:27;;;;;;;1.60;1.00;;;8.10;98.00;;;;;;4961251;28;20439;-70
2022/11/09 01:44:40;;;;;;;0.60;0.60;;;8.10;98.00;;;;;;4961418;29;20023;-70
2022/11/09 01:47:23;;;;;;;2.42;1.08;;;8.10;98.00;;;;;;4886655;29;20141;-70
2022/11/09 01:49:59;;;;;;;3.05;0.57;;;8.10;98.00;;;;;;4902282;29;20322;-70
2022/11/09 01:52:46;;;;;;;1.27;0.90;;;8.20;98.00;;;;;;4902248;29;20499;-70
2022/11/09 01:55:23;;;;;;;1.02;0.50;;;8.30;98.00;;;;;;4902074;29;20491;-70
2022/11/09 01:58:32;;;;;;;4.30;1.40;;;8.30;98.00;;;;;;4902222;29;20041;-69
2022/11/09 02:04:35;;;;;;;2.42;1.27;;;8.20;98.00;;;;;;4846605;29;20488;-69
2022/11/09 02:07:10;;;;;;;1.00;0.73;;;8.10;98.00;;;;;;4830783;29;20053;-69
2022/11/09 02:10:07;;;;;;;2.53;2.25;;;8.10;98.00;;;;;;4846322;29;20041;-69
2022/11/09 02:12:34;;;;;;;1.33;0.63;;;8.00;98.00;;;;;;4864586;29;20434;-69
2022/11/09 02:15:10;;;;;;;0.75;0.70;;;8.00;98.00;;;;;;4864642;29;20033;-69
2022/11/09 02:17:49;;;;;;;0.65;0.60;;;8.00;98.00;;;;;;4864521;29;20048;-69
2022/11/09 02:20:24;;;;;;;0.93;0.80;;;8.00;98.00;;;;;;4864322;29;20061;-70
2022/11/09 02:22:58;;;;;;;3.23;1.20;;;8.00;98.00;;;;;;4864461;29;20042;-70
2022/11/09 02:25:33;;;;;;;3.80;2.88;;;8.10;98.00;;;;;;4864539;29;20789;-70
2022/11/09 02:28:08;;;;;;;1.38;1.27;;;8.10;98.00;;;;;;4864381;29;20550;-70
2022/11/09 02:30:34;;;;;;;1.10;0.55;;;8.10;98.00;;;;;;4863974;29;20162;-69
2022/11/09 02:33:15;;;;;;;1.30;1.20;;;8.10;98.00;;;;;;4864393;29;20311;-70
2022/11/09 02:36:42;;;;;;;1.35;0.95;;;8.10;98.00;;;;;;4883911;28;20062;-69
2022/11/09 02:42:43;;;;;;;1.67;1.05;;;8.00;98.00;;;;;;4960647;29;20086;-69
2022/11/09 02:45:18;;;;;;;1.02;0.80;;;8.00;98.00;;;;;;4960171;29;20122;-69
2022/11/09 02:47:53;;;;;;;0.73;0.40;;;8.00;98.00;;;;;;4960265;29;20285;-69
2022/11/09 02:50:19;;;;;;;3.85;1.50;;;8.00;98.00;;;;;;4960090;28;20106;-69
2022/11/09 02:53:06;;;;;;;1.83;0.75;;;8.00;98.00;;;;;;4960163;29;20027;-70
2022/11/09 02:55:41;;;;;;;0.88;0.85;;;8.00;98.00;;;;;;4943072;29;20031;-69
2022/11/09 02:58:15;;;;;;;2.28;1.55;;;8.10;98.00;;;;;;4959972;29;20066;-69
2022/11/09 03:00:41;;;;;;;1.77;1.13;;;8.10;98.00;;;;;;4960112;28;20039;-69
2022/11/09 03:03:22;;;;;;;1.13;0.75;;;8.20;98.00;;;;;;4960077;29;20168;-69
2022/11/09 03:05:57;;;;;;;2.08;1.08;;;8.20;98.00;;;;;;4959943;29;20451;-69
2022/11/09 03:08:32;;;;;;;1.35;0.65;;;8.30;98.00;;;;;;4959831;29;20023;-69
2022/11/09 03:11:01;;;;;;;0.77;0.65;;;8.30;98.00;;;;;;4942593;29;20373;-69
2022/11/09 03:13:42;;;;;;;1.88;1.05;;;8.50;98.00;;;;;;4959960;29;20042;-69
2022/11/09 03:16:17;;;;;;;1.77;1.33;;;8.50;98.00;;;;;;4959650;29;20106;-70
2022/11/09 03:18:52;;;;;;;0.90;0.52;;;8.50;98.00;;;;;;4959470;29;20027;-69
2022/11/09 03:24:52;;;;;;;3.75;2.10;;;8.50;98.00;;;;;;4959807;29;20030;-70
2022/11/09 03:27:26;;;;;;;4.53;1.98;;;8.50;98.00;;;;;;4959479;29;20110;-70
2022/11/09 03:30:05;;;;;;;1.77;0.95;;;8.50;98.00;;;;;;4959430;28;20031;-69
2022/11/09 03:32:31;;;;;;;0.98;0.85;;;8.60;98.00;;;;;;4959259;29;20057;-69
2022/11/09 03:35:11;;;;;;;1.60;1.42;;;8.60;98.00;;;;;;4959299;29;20425;-69
2022/11/09 03:37:46;;;;;;;2.03;1.45;;;8.70;98.00;;;;;;4959205;29;20368;-69
2022/11/09 03:40:24;;;;;;;4.20;1.30;;;8.70;98.00;;;;;;4959182;28;20020;-70
2022/11/09 03:42:59;;;;;;;1.98;0.80;;;8.70;98.00;;;;;;4958719;28;20051;-69
2022/11/09 03:45:33;;;;;;;2.17;0.93;;;8.70;98.00;;;;;;4959654;29;20031;-69
2022/11/09 03:48:08;;;;;;;1.80;1.08;;;8.70;98.00;;;;;;4959013;29;20063;-69
2022/11/09 03:50:35;;;;;;;2.53;0.73;;;8.60;98.00;;;;;;4958985;28;20111;-70
2022/11/09 03:53:19;;;;;;;1.70;1.10;;;8.50;98.00;;;;;;4958891;29;20415;-69
2022/11/09 03:55:56;;;;;;;4.47;1.67;;;8.30;98.00;;;;;;4958991;29;20028;-69
2022/11/09 03:58:31;;;;;;;1.70;0.93;;;8.20;98.00;;;;;;4958947;29;20042;-69
2022/11/09 04:04:28;;;;;;;3.42;1.38;;;8.00;98.00;;;;;;4959014;29;20086;-69
2022/11/09 04:07:03;;;;;;;5.03;0.85;;;8.00;98.00;;;;;;4958893;29;20105;-69
2022/11/09 04:09:37;;;;;;;2.53;0.68;;;8.00;98.00;;;;;;4958648;28;20034;-69
2022/11/09 04:12:04;;;;;;;1.15;1.05;;;8.10;98.00;;;;;;4958603;29;20075;-70
2022/11/09 04:14:48;;;;;;;1.90;1.33;;;8.20;98.00;;;;;;4958723;29;20059;-69
2022/11/09 04:17:22;;;;;;;1.33;0.60;;;8.30;98.00;;;;;;4958557;29;20357;-70
2022/11/09 04:19:57;;;;;;;0.57;0.40;;;8.50;98.00;;;;;;4958549;28;20467;-69
2022/11/09 04:22:23;;;;;;;0.98;0.70;;;8.50;98.00;;;;;;4958604;29;20038;-69
2022/11/09 04:25:07;;;;;;;3.25;0.77;;;8.50;98.00;;;;;;4941480;29;20035;-69
2022/11/09 04:27:42;;;;;;;0.40;0.40;;;8.40;98.00;;;;;;4958520;29;20090;-69
2022/11/09 04:30:17;;;;;;;1.98;0.98;;;8.30;98.00;;;;;;4958436;28;20031;-69
2022/11/09 04:32:53;;;;;;;1.95;1.13;;;8.20;98.00;;;;;;4958455;29;20023;-69
2022/11/09 04:35:29;;;;;;;;;;;8.20;98.00;;;;;;4958696;29;20039;-69
2022/11/09 04:38:10;;;;;;;1.23;0.90;;;8.20;98.00;;;;;;4939133;29;19926;-70
2022/11/09 04:44:07;;;;;;;0.80;0.52;;;8.20;98.00;;;;;;4939379;29;20035;-69
2022/11/09 04:46:42;;;;;;;1.97;0.73;;;8.20;98.00;;;;;;4922201;29;20035;-69
2022/11/09 04:52:30;;;;;;;2.30;1.52;;;8.20;98.00;;;;;;4939647;29;20459;-69
2022/11/09 04:55:06;;;;;;;3.42;0.82;;;8.20;98.00;;;;;;4923546;29;20032;-69
2022/11/09 04:58:06;;;;;;;1.00;0.88;;;8.30;98.00;;;;;;4926253;29;20032;-69
2022/11/09 05:00:32;;;;;;;2.30;0.63;;;8.30;98.00;;;;;;4943227;29;20483;-69
2022/11/09 05:03:07;;;;;;;4.22;0.85;;;8.30;98.00;;;;;;4942977;29;20059;-69
2022/11/09 05:05:42;;;;;;;0.73;0.73;;;8.40;98.00;;;;;;4942928;29;20036;-69
2022/11/09 05:08:17;;;;;;;0.43;0.43;;;8.50;97.60;;;;;;4942869;29;20424;-69
2022/11/09 05:10:43;;;;;;;0.80;0.55;;;8.50;97.30;;;;;;4942771;29;20111;-69
2022/11/09 05:13:21;;;;;;;0.85;0.43;;;8.50;97.20;;;;;;4942748;29;20055;-70
2022/11/09 05:15:59;;;;;;;2.67;1.35;;;8.50;97.20;;;;;;4942574;29;20115;-69
2022/11/09 05:19:24;;;;;;;2.72;0.77;;;8.50;97.00;;;;;;4942669;29;20028;-69
2022/11/09 05:21:49;;;;;;;0.65;0.55;;;8.50;97.30;;;;;;4942573;29;20043;-69
2022/11/09 05:24:33;;;;;;;0.73;0.65;;;8.50;97.40;;;;;;4942541;29;20036;-69
2022/11/09 05:27:08;;;;;;;0.55;0.45;;;8.40;97.70;;;;;;4942553;29;20033;-69
2022/11/09 05:32:56;;;;;;;0.45;0.30;;;8.60;96.20;;;;;;4942499;29;20218;-69
2022/11/09 05:35:32;;;;;;;0.77;0.60;;;8.80;95.10;;;;;;4925566;29;20127;-70
2022/11/09 05:38:07;;;;;;;0.20;0.20;;;9.00;94.10;;;;;;4942137;29;20040;-70
2022/11/09 05:40:33;;;;;;;1.15;0.50;;;9.10;93.50;;;;;;4942055;29;20028;-69
2022/11/09 05:43:08;;;;;;;0.60;0.52;;;9.30;92.70;;;;;;4942281;29;20024;-70
2022/11/09 05:45:43;;;;;;;0.50;0.40;;;9.40;92.60;;;;;;4942102;29;20032;-70
2022/11/09 05:48:18;;;;;;;0.45;0.43;;;9.40;92.00;;;;;;4942154;29;20032;-69
2022/11/09 05:50:44;;;;;;;1.33;0.40;;;9.50;92.10;;;;;;4941939;29;20024;-69
2022/11/09 05:53:24;;;;;;;2.08;1.38;;;9.50;91.50;;;;;;4941927;29;20043;-70
2022/11/09 05:56:04;;;;;;;0.73;0.60;;;9.60;91.40;;;;;;4941949;29;20027;-69
2022/11/09 05:58:40;;;;;;;0.50;0.32;;;9.60;91.60;;;;;;4941709;29;20027;-69
2022/11/09 06:01:09;;;;;;;2.05;1.08;;;9.60;92.00;;;;;;4941590;29;20443;-69
2022/11/09 06:03:44;;;;;;;0.77;0.52;;;9.60;92.00;;;;;;4941888;29;20024;-69
2022/11/09 06:06:19;;;;;;;0.77;0.70;;;9.60;92.10;;;;;;4924365;29;20447;-70
2022/11/09 06:08:53;;;;;;;1.00;0.68;;;9.60;92.00;;;;;;4941651;29;20031;-70
2022/11/09 06:14:53;;;;;;;0.73;0.60;;;9.80;92.10;;;;;;4941870;29;20087;-70
2022/11/09 06:17:28;;;;;;;0.73;0.63;;;9.80;93.30;;;;;;4941648;29;20031;-70
2022/11/09 06:20:03;;;;;;;0.70;0.40;;;9.70;93.80;;;;;;4941373;29;20062;-70
2022/11/09 06:22:29;;;;;;;1.10;0.70;;;9.60;93.80;;;;;;4941626;29;20034;-69
2022/11/09 06:25:12;;;;;;;0.68;0.50;;;9.70;92.20;;;;;;4941364;29;20036;-70
2022/11/09 06:27:53;;;;;;;1.52;0.73;;;9.90;90.60;;;;;;4941547;29;20032;-69
2022/11/09 06:30:28;;;;;;;2.33;0.55;;;10.00;90.20;;;;;;4941083;29;20031;-70
2022/11/09 06:33:06;;;;;;;1.35;0.45;;;10.10;89.70;;;;;;4941273;29;20035;-69
2022/11/09 06:35:41;;;;;;;0.63;0.40;;;10.20;89.50;;;;;;4941479;28;20027;-70
2022/11/09 06:38:15;;;;;;;1.58;0.40;;;10.30;89.10;;;;;;4941181;29;20043;-70
2022/11/09 06:40:41;;;;;;;1.48;0.65;;;10.40;89.30;;;;;;4941054;29;20099;-70
2022/11/09 06:43:19;;;;;;;1.02;0.85;;;10.50;89.70;;;;;;4941362;29;20111;-70
2022/11/09 06:45:54;;;;;;;1.67;0.70;;;10.60;89.10;;;;;;4941020;29;20036;-70
2022/11/09 06:48:29;;;;;;;0.55;0.50;;;10.70;89.10;;;;;;4941065;29;20028;-70
2022/11/09 06:54:33;;;;;;;1.05;0.30;;;11.00;88.50;;;;;;4941259;29;20050;-69
2022/11/09 06:57:08;;;;;;;0.20;0.20;;;11.10;89.30;;;;;;4940814;29;20047;-70
2022/11/09 07:02:55;;;;;;;0.93;0.43;;;11.10;90.30;;;;;;4941135;29;20038;-70
2022/11/09 07:05:30;;;;;;;0.55;0.40;;;11.20;90.40;;;;;;4940717;29;20118;-70
2022/11/09 07:08:05;;;;;;;0.47;0.43;;;11.20;92.90;;;;;;4940724;29;20153;-70
2022/11/09 07:10:31;;;;;;;0.63;0.57;;;11.20;90.60;;;;;;4940600;29;20110;-70
2022/11/09 07:13:06;;;;;;;1.55;0.57;;;11.30;90.40;;;;;;4940543;29;20111;-70
2022/11/09 07:15:41;;;;;;;1.08;0.35;;;11.30;90.20;;;;;;4940663;29;20035;-70
2022/11/09 07:18:16;;;;;;;0.38;0.38;;;11.30;89.70;;;;;;4939687;29;20023;-70
2022/11/09 07:20:42;;;;;;;0.60;0.32;;;11.30;91.00;;;;;;4940658;29;20035;-70
2022/11/09 07:23:20;;;;;;;0.40;0.28;;;11.30;90.70;;;;;;4940531;29;20072;-69
2022/11/09 07:25:58;;;;;;;0.13;0.13;;;11.30;91.90;;;;;;4940387;29;20331;-70
2022/11/09 07:28:33;;;;;;;0.68;0.35;;;11.40;92.20;;;;;;4940315;29;20421;-70
2022/11/09 07:34:33;;;;;;;0.63;0.40;;;11.60;91.50;;;;;;4940480;29;20030;-69
2022/11/09 07:37:58;;;;;;;0.28;0.28;;;11.70;89.70;;;;;;4950103;28;20055;-70
2022/11/09 07:44:56;;;;;;;1.05;0.85;;;11.90;91.60;;;;;;4959453;29;20030;-70
2022/11/09 07:48:21;;;;;;;1.38;0.90;;;12.10;92.90;;;;;;4959024;29;20035;-70
2022/11/09 07:50:47;;;;;;;0.77;0.70;;;12.20;93.40;;;;;;4959011;28;20031;-70
2022/11/09 07:53:29;;;;;;;1.65;1.42;;;12.20;92.00;;;;;;4959104;29;20043;-70
2022/11/09 07:56:06;;;;;;;1.00;0.40;;;12.30;91.70;;;;;;4959040;29;20030;-70
2022/11/09 07:58:41;;;;;;;1.60;0.60;;;12.40;91.70;;;;;;4958938;29;20027;-70
2022/11/09 08:01:08;;;;;;;0.93;0.60;;;12.50;92.10;;;;;;4959113;28;20112;-70
2022/11/09 08:03:49;;;;;;;1.25;0.75;;;12.50;89.80;;;;;;4958881;29;20031;-70
2022/11/09 08:06:26;;;;;;;2.83;0.80;;;12.80;88.60;;;;;;4958714;29;20023;-70
2022/11/09 08:09:01;;;;;;;1.35;1.25;;;12.80;89.60;;;;;;4958843;29;20024;-70
2022/11/09 08:14:58;;;;;;;1.40;1.08;;;12.90;87.60;;;;;;4958647;29;20310;-70
2022/11/09 08:17:36;;;;;;;1.60;1.13;;;12.80;90.90;;;;;;4958699;29;20090;-70
2022/11/09 08:23:24;;;;;;;2.22;0.90;;;12.70;93.20;;;;;;4958959;29;20034;-70
2022/11/09 08:26:10;;;;;;;4.70;1.33;;;12.70;91.90;;;;;;4958309;29;20331;-70
2022/11/09 08:28:48;;;;;;;1.42;0.90;;;12.80;90.30;;;;;;4958323;28;20054;-79
